Time;durP1;ratioP1;P1;durP2;ratioP2;P2;SDS_P1;SDS_P2;PMS_P1;PMS_P2;Temp;Humidity;BMP_temperature;BMP_pressure;BME280_temperature;BME280_humidity;BME280_pressure;Samples;Min_cycle;Max_cycle;Signal;HPM_P1;HPM_P2
2023/01/28 00:02:19;;;;;;;52.70;21.73;;;;;;;-1.91;90.75;100438.83;124713;1105;102683;-83
2023/01/28 00:04:51;;;;;;;52.37;22.90;;;;;;;-1.91;91.74;100444.86;124724;1105;101810;-83
2023/01/28 00:07:23;;;;;;;60.50;25.10;;;;;;;-1.89;91.34;100439.84;124705;1105;102354;-83
2023/01/28 00:09:55;;;;;;;52.60;22.30;;;;;;;-1.89;91.21;100444.99;124747;1105;104179;-83
2023/01/28 00:12:26;;;;;;;56.57;23.40;;;;;;;-1.91;90.33;100441.41;124790;1105;102352;-83
2023/01/28 00:14:57;;;;;;;53.80;24.00;;;;;;;-1.92;91.51;100439.59;124647;1103;102000;-83
2023/01/28 00:17:28;;;;;;;56.40;23.43;;;;;;;-1.92;90.50;100443.05;124662;1105;104223;-83
2023/01/28 00:20:00;;;;;;;61.40;23.80;;;;;;;-1.92;90.56;100437.91;124677;1105;104478;-83
2023/01/28 00:22:31;;;;;;;58.17;22.90;;;;;;;-1.91;90.08;100439.72;124790;1105;101782;-83
2023/01/28 00:25:06;;;;;;;51.90;20.60;;;;;;;-1.95;91.48;100436.76;124807;1105;104179;-83
2023/01/28 00:27:37;;;;;;;50.97;20.43;;;;;;;-2.00;91.19;100433.80;124715;1105;101969;-83
2023/01/28 00:30:11;;;;;;;52.83;21.30;;;;;;;-2.03;90.39;100436.11;124785;1105;102280;-83
2023/01/28 00:32:43;;;;;;;52.93;22.27;;;;;;;-2.04;91.20;100440.36;124762;1105;102076;-84
2023/01/28 00:35:14;;;;;;;47.70;19.97;;;;;;;-2.04;90.68;100435.22;124626;1105;102919;-84
2023/01/28 00:37:48;;;;;;;50.17;20.83;;;;;;;-2.02;90.57;100432.78;124737;1105;104188;-82
2023/01/28 00:40:19;;;;;;;52.30;21.93;;;;;;;-2.01;90.11;100435.48;124683;1105;102291;-83
2023/01/28 00:42:51;;;;;;;49.97;21.03;;;;;;;-1.99;90.95;100439.07;124677;1105;104265;-83
2023/01/28 00:45:22;;;;;;;55.37;21.87;;;;;;;-1.98;91.17;100432.25;124687;1105;104233;-83
2023/01/28 00:47:53;;;;;;;54.60;21.63;;;;;;;-1.98;91.27;100445.10;124679;1105;104224;-82
2023/01/28 00:50:24;;;;;;;55.47;23.30;;;;;;;-1.96;91.65;100451.30;124741;1105;102175;-83
2023/01/28 00:52:57;;;;;;;51.67;22.20;;;;;;;-1.94;91.34;100438.57;124693;1105;104645;-83
2023/01/28 00:55:28;;;;;;;54.77;21.60;;;;;;;-1.96;91.24;100448.73;124626;1105;104236;-85
2023/01/28 00:58:00;;;;;;;54.20;22.83;;;;;;;-1.97;91.06;100444.34;124739;1105;101901;-82
2023/01/28 01:00:31;;;;;;;54.15;22.65;;;;;;;-1.99;91.49;100451.04;124684;1105;104335;-79
2023/01/28 01:03:03;;;;;;;54.30;22.83;;;;;;;-1.98;90.84;100457.96;124642;1105;102220;-79
2023/01/28 01:05:34;;;;;;;51.60;20.15;;;;;;;-1.97;91.02;100452.06;124792;1105;104201;-82
2023/01/28 01:08:06;;;;;;;54.50;22.70;;;;;;;-1.98;91.41;100442.53;124766;1103;104204;-82
2023/01/28 01:10:39;;;;;;;53.83;22.57;;;;;;;-1.98;90.23;100450.25;124593;1105;118532;-82
2023/01/28 01:13:10;;;;;;;56.10;22.22;;;;;;;-1.96;90.18;100453.87;124644;1103;104099;-82
2023/01/28 01:15:42;;;;;;;55.80;23.67;;;;;;;-1.93;90.93;100448.06;124605;1105;104307;-83
2023/01/28 01:18:13;;;;;;;56.00;23.87;;;;;;;-1.89;90.68;100457.85;124709;1105;102022;-82
2023/01/28 01:20:45;;;;;;;55.00;22.47;;;;;;;-1.88;90.78;100459.66;124781;1105;102115;-83
2023/01/28 01:23:16;;;;;;;52.77;20.73;;;;;;;-1.91;90.51;100456.83;124726;1105;101930;-82
2023/01/28 01:25:47;;;;;;;55.73;23.93;;;;;;;-1.94;90.01;100460.03;124788;1105;104085;-83
2023/01/28 01:28:19;;;;;;;52.97;20.37;;;;;;;-1.99;90.86;100448.47;124903;1105;102323;-83
2023/01/28 01:30:51;;;;;;;51.03;21.40;;;;;;;-2.03;91.04;100455.00;124933;1105;101900;-82
2023/01/28 01:33:23;;;;;;;51.00;21.07;;;;;;;-2.06;91.01;100461.56;124700;1105;103674;-82
2023/01/28 01:35:56;;;;;;;47.03;19.63;;;;;;;-2.07;90.30;100459.75;124819;1105;104204;-81
2023/01/28 01:38:28;;;;;;;48.08;19.82;;;;;;;-2.09;90.48;100462.19;124788;1104;101881;-83
2023/01/28 01:41:01;;;;;;;51.70;20.87;;;;;;;-2.11;90.38;100450.00;124795;1105;104229;-83
2023/01/28 01:46:35;;;;;;;40.23;15.50;;;;;;;-2.18;91.37;100457.19;125058;1102;102348;-86
2023/01/28 01:49:17;;;;;;;51.17;19.27;;;;;;;-2.17;90.49;100441.00;124752;1105;104344;-83
2023/01/28 01:51:52;;;;;;;51.13;19.90;;;;;;;-2.16;90.09;100439.32;124774;1105;101856;-83
2023/01/28 01:54:23;;;;;;;;;;;;;;;-2.17;90.79;100456.43;124888;1105;102345;-84
2023/01/28 01:56:55;;;;;;;46.77;17.67;;;;;;;-2.17;90.31;100434.94;124709;1104;104245;-80
2023/01/28 01:59:33;;;;;;;50.17;20.03;;;;;;;-2.13;90.24;100448.98;124705;1105;101887;-82
2023/01/28 02:02:08;;;;;;;45.83;19.97;;;;;;;-2.12;90.65;100454.25;124746;1104;104284;-82
2023/01/28 02:04:44;;;;;;;51.53;20.03;;;;;;;-2.10;90.88;100457.84;124747;1105;104638;-83
2023/01/28 02:07:18;;;;;;;51.53;20.77;;;;;;;-2.05;90.89;100458.23;124779;1102;104233;-81
2023/01/28 02:09:49;;;;;;;45.53;19.73;;;;;;;-2.03;91.32;100452.42;124729;1102;102170;-82
2023/01/28 02:12:27;;;;;;;55.00;21.27;;;;;;;-2.00;90.32;100462.09;124715;1105;102131;-82
2023/01/28 02:15:02;;;;;;;50.43;21.93;;;;;;;-1.99;91.00;100459.64;124662;1105;102061;-83
2023/01/28 02:17:34;;;;;;;53.17;22.03;;;;;;;-1.99;90.53;100451.93;124776;1105;101932;-83
2023/01/28 02:20:09;;;;;;;53.07;21.23;;;;;;;-1.96;91.21;100442.66;124848;1105;104248;-83
2023/01/28 02:23:07;;;;;;;53.83;20.47;;;;;;;-1.96;90.22;100451.30;124698;1102;104328;-83
2023/01/28 02:26:23;;;;;;;54.60;21.17;;;;;;;-1.96;90.15;100445.23;124687;1103;104334;-83
2023/01/28 02:29:00;;;;;;;49.93;19.30;;;;;;;-1.97;91.35;100443.45;124840;1102;109257;-84
2023/01/28 02:31:38;;;;;;;50.10;22.17;;;;;;;-1.99;90.23;100440.75;124709;1102;104245;-84
2023/01/28 02:34:18;;;;;;;54.17;22.43;;;;;;;-1.99;90.13;100444.22;124658;1105;102571;-82
2023/01/28 02:36:55;;;;;;;55.20;20.50;;;;;;;-1.99;90.13;100445.89;124690;1105;104225;-84
2023/01/28 02:39:33;;;;;;;53.37;21.47;;;;;;;-2.00;90.27;100444.09;124650;1102;104217;-83
2023/01/28 02:42:09;;;;;;;59.30;21.73;;;;;;;-1.98;91.38;100442.53;124749;1102;104379;-82
2023/01/28 02:44:40;;;;;;;53.20;21.73;;;;;;;-1.97;90.98;100446.03;124716;1105;104242;-81
2023/01/28 02:50:12;;;;;;;55.27;21.10;;;;;;;-2.00;90.70;100439.83;124623;1105;107032;-84
2023/01/28 02:55:54;;;;;;;52.70;20.27;;;;;;;-2.01;91.32;100434.56;124573;1105;101991;-82
2023/01/28 02:58:33;;;;;;;56.30;22.17;;;;;;;-2.03;90.94;100429.28;124741;1105;104297;-83
2023/01/28 03:01:14;;;;;;;51.67;21.60;;;;;;;-1.98;91.43;100421.95;124676;1105;102335;-84
2023/01/28 03:03:57;;;;;;;55.27;21.83;;;;;;;-1.97;92.12;100434.06;124646;1105;101922;-82
2023/01/28 03:06:35;;;;;;;50.70;20.63;;;;;;;-1.95;90.79;100426.47;124820;1105;104057;-83
2023/01/28 03:09:22;;;;;;;48.17;20.00;;;;;;;-1.97;91.04;100426.34;124662;1106;102125;-85
2023/01/28 03:37:51;;;;;;;49.67;20.83;;;;;;;-1.81;91.79;100413.08;124718;1103;101994;-83
2023/01/28 03:40:26;;;;;;;51.00;19.90;;;;;;;-1.77;92.88;100420.30;124718;1105;104249;-85
2023/01/28 03:42:59;;;;;;;48.43;19.63;;;;;;;-1.75;91.72;100411.02;124731;1105;104199;-84
2023/01/28 03:45:38;;;;;;;49.87;20.13;;;;;;;-1.73;92.36;100416.30;124700;1105;102140;-83
2023/01/28 03:48:11;;;;;;;52.43;20.37;;;;;;;-1.72;92.34;100425.83;124861;1106;101863;-82
2023/01/28 03:50:43;;;;;;;53.87;21.20;;;;;;;-1.69;92.71;100415.79;124906;1102;101890;-84
2023/01/28 03:53:14;;;;;;;51.93;20.47;;;;;;;-1.69;92.74;100420.94;124868;1104;104191;-82
2023/01/28 03:56:01;;;;;;;52.30;19.57;;;;;;;-1.68;92.37;100420.17;124667;1105;102047;-84
2023/01/28 03:58:51;;;;;;;55.40;20.53;;;;;;;-1.66;93.70;100414.36;124761;1105;101925;-84
2023/01/28 04:01:23;;;;;;;53.83;20.20;;;;;;;-1.64;92.56;100417.06;124807;1102;101820;-84
2023/01/28 04:03:54;;;;;;;50.13;20.47;;;;;;;-1.63;93.11;100416.30;124659;1102;102422;-84
2023/01/28 04:06:31;;;;;;;61.37;23.87;;;;;;;-1.61;93.53;100426.72;124823;1106;102322;-83
2023/01/28 04:09:22;;;;;;;56.63;22.10;;;;;;;-1.61;93.21;100416.42;124682;1105;103024;-84
2023/01/28 04:11:53;;;;;;;57.00;21.03;;;;;;;-1.60;92.63;100418.23;124720;1105;104259;-84
2023/01/28 04:14:32;;;;;;;54.63;21.43;;;;;;;-1.58;92.69;100419.25;124629;1105;104258;-82
2023/01/28 04:17:17;;;;;;;63.07;24.43;;;;;;;-1.56;92.77;100420.27;124844;1105;104133;-84
2023/01/28 04:19:50;;;;;;;65.13;23.77;;;;;;;-1.56;92.56;100423.73;124728;1105;102232;-85
2023/01/28 04:22:22;;;;;;;64.03;25.50;;;;;;;-1.54;93.89;100440.22;124777;1105;102048;-82
2023/01/28 04:24:54;;;;;;;62.10;25.73;;;;;;;-1.53;93.16;100430.81;124725;1106;101860;-82
2023/01/28 04:27:26;;;;;;;71.10;25.50;;;;;;;-1.52;93.78;100433.52;124723;1105;104217;-85
2023/01/28 04:29:57;;;;;;;62.70;25.55;;;;;;;-1.49;93.79;100422.59;124729;1105;104163;-83
2023/01/28 04:32:39;;;;;;;64.40;25.47;;;;;;;-1.49;93.71;100423.47;124667;1106;104230;-84
2023/01/28 04:35:29;;;;;;;65.63;25.80;;;;;;;-1.48;93.31;100422.71;124740;1105;102256;-82
2023/01/28 04:38:21;;;;;;;66.43;24.80;;;;;;;-1.45;93.56;100425.53;124652;1104;104189;-84
2023/01/28 04:41:02;;;;;;;67.07;26.67;;;;;;;-1.45;93.72;100425.53;124646;1105;102504;-84
2023/01/28 04:43:38;;;;;;;59.57;23.70;;;;;;;-1.44;93.72;100423.85;124704;1105;102064;-83
2023/01/28 04:46:32;;;;;;;70.47;27.93;;;;;;;-1.41;93.21;100434.40;124598;1105;104547;-81
2023/01/28 04:49:26;;;;;;;68.42;26.48;;;;;;;-1.40;94.11;100436.21;124694;1103;104166;-81
2023/01/28 04:52:18;;;;;;;75.20;27.67;;;;;;;-1.37;93.55;100430.39;124615;1105;104252;-81
2023/01/28 04:55:01;;;;;;;69.93;26.37;;;;;;;-1.35;93.59;100445.20;124688;1105;101848;-84
2023/01/28 04:57:33;;;;;;;66.47;26.07;;;;;;;-1.32;94.35;100439.41;124669;1105;101896;-82
2023/01/28 05:00:06;;;;;;;67.13;25.07;;;;;;;-1.30;93.98;100432.70;124701;1105;104161;-84
2023/01/28 05:02:37;;;;;;;73.27;27.37;;;;;;;-1.27;94.05;100432.95;124676;1105;118557;-82
2023/01/28 05:05:10;;;;;;;70.70;27.83;;;;;;;-1.24;93.86;100440.05;124695;1105;104190;-85
2023/01/28 05:08:02;;;;;;;72.50;26.17;;;;;;;-1.22;94.12;100438.48;124744;1105;102213;-83
2023/01/28 05:10:34;;;;;;;71.50;27.10;;;;;;;-1.19;94.22;100446.45;124812;1102;104227;-82
2023/01/28 05:13:05;;;;;;;73.30;27.03;;;;;;;-1.18;94.19;100438.85;124811;1105;104153;-82
2023/01/28 05:15:37;;;;;;;63.80;25.67;;;;;;;-1.17;94.76;100442.31;124770;1105;102078;-79
2023/01/28 05:18:08;;;;;;;68.27;26.43;;;;;;;-1.14;93.58;100450.30;124712;1105;104271;-82
2023/01/28 05:20:45;;;;;;;75.70;28.53;;;;;;;-1.12;94.69;100449.66;124746;1105;102120;-82
2023/01/28 05:23:16;;;;;;;72.33;27.87;;;;;;;-1.09;94.18;100454.16;124787;1105;104019;-81
2023/01/28 05:25:54;;;;;;;74.60;29.80;;;;;;;-1.07;93.86;100450.03;124747;1106;104194;-82
2023/01/28 05:28:28;;;;;;;83.33;31.87;;;;;;;-1.04;94.30;100455.42;124697;1105;102834;-79
2023/01/28 05:31:05;;;;;;;78.17;30.60;;;;;;;-1.00;93.98;100453.98;124650;1105;103073;-82
2023/01/28 05:33:36;;;;;;;71.55;28.10;;;;;;;-0.98;93.71;100463.66;124684;1105;101911;-80
2023/01/28 05:36:09;;;;;;;72.47;28.47;;;;;;;-0.95;93.78;100455.25;124736;1105;104344;-83
2023/01/28 05:38:42;;;;;;;76.63;28.70;;;;;;;-0.92;94.32;100465.80;124641;1105;104175;-81
2023/01/28 05:41:13;;;;;;;72.63;30.10;;;;;;;-0.89;93.57;100465.16;124625;1105;102160;-79
2023/01/28 05:43:46;;;;;;;76.67;30.67;;;;;;;-0.87;93.04;100463.59;124566;1105;104157;-80
2023/01/28 05:46:45;;;;;;;71.53;27.53;;;;;;;-0.83;93.92;100465.66;124586;1105;104272;-81
2023/01/28 05:49:51;;;;;;;68.93;26.83;;;;;;;-0.78;92.93;100469.48;124713;1102;104273;-81
2023/01/28 05:52:49;;;;;;;66.47;26.23;;;;;;;-0.74;92.80;100471.55;124569;1103;101908;-79
2023/01/28 05:55:28;;;;;;;63.83;26.07;;;;;;;-0.70;92.34;100480.41;124589;1105;104285;-80
2023/01/28 05:58:00;;;;;;;62.70;25.63;;;;;;;-0.69;92.59;100477.95;124654;1105;104297;-75
2023/01/28 06:00:31;;;;;;;72.07;27.33;;;;;;;-0.64;92.17;100479.25;124633;1105;102158;-78
2023/01/28 06:03:03;;;;;;;69.53;28.53;;;;;;;-0.61;92.32;100476.91;124663;1104;104141;-81
2023/01/28 06:05:35;;;;;;;63.23;26.13;;;;;;;-0.59;91.73;100477.92;124678;1105;104204;-76
2023/01/28 06:08:06;;;;;;;66.10;27.73;;;;;;;-0.56;91.71;100487.59;124625;1102;102565;-81
2023/01/28 06:10:38;;;;;;;60.73;25.73;;;;;;;-0.53;91.38;100482.69;124561;1104;104201;-78
2023/01/28 06:13:09;;;;;;;62.37;24.57;;;;;;;-0.50;91.01;100488.05;124705;1105;102464;-78
2023/01/28 06:15:59;;;;;;;64.43;26.70;;;;;;;-0.45;90.92;100493.57;124691;1105;104374;-77
2023/01/28 06:18:49;;;;;;;64.33;26.73;;;;;;;-0.41;91.01;100496.52;124902;1105;101947;-76
2023/01/28 06:21:21;;;;;;;61.27;27.60;;;;;;;-0.37;91.68;100495.10;124931;1105;104044;-81
2023/01/28 06:24:13;;;;;;;58.50;26.55;;;;;;;-0.35;91.28;100493.53;124633;1105;102856;-81
2023/01/28 06:27:10;;;;;;;59.40;25.87;;;;;;;-0.32;90.72;100495.47;124770;1105;104326;-79
2023/01/28 06:29:41;;;;;;;58.37;24.20;;;;;;;-0.31;90.10;100504.98;125012;1102;103206;-80
2023/01/28 06:32:12;;;;;;;56.20;24.40;;;;;;;-0.27;90.76;100505.34;124842;1102;102707;-79
2023/01/28 06:34:47;;;;;;;54.87;24.53;;;;;;;-0.22;91.24;100504.05;124748;1105;104370;-79
2023/01/28 06:37:18;;;;;;;57.20;25.13;;;;;;;-0.20;90.62;100506.75;124662;1104;104284;-81
2023/01/28 06:39:50;;;;;;;55.93;24.67;;;;;;;-0.17;90.55;100509.56;124713;1105;103344;-79
2023/01/28 06:42:22;;;;;;;54.40;23.77;;;;;;;-0.15;89.70;100505.42;124710;1105;103088;-80
2023/01/28 06:44:53;;;;;;;58.43;24.63;;;;;;;-0.11;90.54;100503.97;124654;1104;104248;-79
2023/01/28 06:47:25;;;;;;;53.63;23.00;;;;;;;-0.07;90.33;100503.44;124646;1103;102896;-77
2023/01/28 06:49:59;;;;;;;55.67;23.38;;;;;;;-0.03;90.35;100508.95;124650;1105;104166;-77
2023/01/28 06:52:30;;;;;;;52.77;24.93;;;;;;;0.00;89.93;100508.31;124670;1106;104168;-80
2023/01/28 06:55:06;;;;;;;49.10;22.83;;;;;;;-0.03;90.81;100492.59;125033;1103;104156;-78
2023/01/28 06:57:44;;;;;;;51.27;24.33;;;;;;;0.09;90.10;100501.25;124841;1105;103648;-78
2023/01/28 07:00:16;;;;;;;55.77;24.67;;;;;;;0.14;90.61;100502.53;124685;1105;102720;-80
2023/01/28 07:02:51;;;;;;;50.23;22.07;;;;;;;0.17;89.13;100501.84;124689;1105;102030;-77
2023/01/28 07:05:25;;;;;;;50.73;22.47;;;;;;;0.22;89.11;100495.38;125353;1105;104197;-78
2023/01/28 07:07:58;;;;;;;48.63;21.47;;;;;;;0.29;89.79;100488.98;125385;1105;104221;-79
2023/01/28 07:10:32;;;;;;;47.00;21.83;;;;;;;0.34;89.86;100491.15;125365;1105;104230;-75
2023/01/28 07:13:10;;;;;;;46.93;22.27;;;;;;;0.38;89.42;100493.97;125364;1105;103173;-77
2023/01/28 07:15:53;;;;;;;51.93;23.23;;;;;;;0.40;90.22;100492.39;125362;1104;108738;-77
2023/01/28 07:18:26;;;;;;;48.30;21.97;;;;;;;0.46;89.93;100491.16;124645;1105;102504;-77
2023/01/28 07:20:58;;;;;;;50.57;22.27;;;;;;;0.47;88.78;100494.66;124535;1105;102887;-80
2023/01/28 07:23:29;;;;;;;45.37;22.07;;;;;;;0.50;89.13;100497.48;124733;1105;103547;-76
2023/01/28 07:26:06;;;;;;;49.60;22.15;;;;;;;0.52;88.42;100501.95;124879;1105;103675;-77
2023/01/28 07:28:38;;;;;;;52.53;21.80;;;;;;;0.53;88.14;100502.84;124655;1105;104203;-76
2023/01/28 07:31:13;;;;;;;47.87;22.13;;;;;;;0.53;88.05;100501.19;124755;1105;102482;-78
2023/01/28 07:33:46;;;;;;;42.30;17.47;;;;;;;0.52;87.34;100512.28;124730;1105;104134;-76
2023/01/28 07:36:20;;;;;;;47.47;21.73;;;;;;;0.53;88.82;100513.17;124657;1102;102673;-76
2023/01/28 07:38:53;;;;;;;47.80;20.27;;;;;;;0.50;87.40;100512.97;124724;1102;102002;-77
2023/01/28 07:41:26;;;;;;;48.20;21.73;;;;;;;0.50;88.25;100502.64;124684;1102;102700;-76
2023/01/28 07:43:58;;;;;;;49.37;20.97;;;;;;;0.53;87.98;100513.17;124685;1102;104175;-80
2023/01/28 07:46:33;;;;;;;50.17;22.60;;;;;;;0.59;88.90;100502.42;124723;1105;110385;-78
2023/01/28 07:49:08;;;;;;;46.90;19.50;;;;;;;0.61;86.33;100506.92;124757;1106;104270;-80
2023/01/28 07:51:38;;;;;;;;;;;;;;;0.61;85.86;100508.59;124702;1104;103507;-77
2023/01/28 07:54:12;;;;;;;47.57;20.07;;;;;;;0.62;86.71;100502.66;124599;1105;102644;-76
2023/01/28 07:56:44;;;;;;;39.90;14.70;;;;;;;0.53;84.67;100502.84;124573;1104;102433;-76
2023/01/28 07:59:17;;;;;;;49.30;22.03;;;;;;;0.58;86.80;100501.53;124643;1105;104229;-75
2023/01/28 08:01:49;;;;;;;46.57;21.37;;;;;;;0.60;86.53;100509.39;124688;1105;104178;-75
2023/01/28 08:04:21;;;;;;;44.70;21.57;;;;;;;0.62;86.87;100505.23;124703;1105;104195;-78
2023/01/28 08:06:54;;;;;;;45.60;20.97;;;;;;;0.59;86.48;100503.30;124684;1105;101852;-80
2023/01/28 08:09:25;;;;;;;43.90;20.23;;;;;;;0.56;85.85;100515.09;124703;1105;104242;-78
2023/01/28 08:11:57;;;;;;;43.40;20.27;;;;;;;0.59;86.45;100512.75;124630;1105;102858;-80
2023/01/28 08:14:29;;;;;;;44.55;20.90;;;;;;;0.57;85.65;100504.00;124655;1103;104207;-79
2023/01/28 08:17:00;;;;;;;47.07;18.97;;;;;;;0.55;85.31;100501.30;124578;1105;103741;-79
2023/01/28 08:19:32;;;;;;;46.30;19.60;;;;;;;0.55;85.62;100498.72;124728;1105;104303;-76
2023/01/28 08:22:03;;;;;;;46.87;21.20;;;;;;;0.58;85.45;100496.37;124620;1105;104140;-76
2023/01/28 08:24:34;;;;;;;44.00;20.20;;;;;;;0.63;85.95;100494.13;124761;1105;102644;-76
2023/01/28 08:27:06;;;;;;;52.67;21.60;;;;;;;0.65;85.51;100484.80;124782;1105;104166;-76
2023/01/28 08:29:37;;;;;;;38.63;17.47;;;;;;;0.65;84.76;100493.44;124744;1105;104172;-81
2023/01/28 08:32:39;;;;;;;41.20;17.73;;;;;;;0.71;84.95;100493.90;124869;1105;102556;-76
2023/01/28 08:35:13;;;;;;;41.60;19.00;;;;;;;0.74;84.90;100477.74;124713;1105;104294;-78
2023/01/28 08:37:48;;;;;;;41.83;18.25;;;;;;;0.73;84.03;100490.55;124662;1105;109544;-75
2023/01/28 08:40:27;;;;;;;42.47;18.83;;;;;;;0.79;84.94;100470.34;124696;1105;104281;-77
2023/01/28 08:42:58;;;;;;;45.17;19.70;;;;;;;0.85;85.46;100481.13;124669;1105;104326;-76
2023/01/28 08:45:30;;;;;;;43.65;19.70;;;;;;;0.86;84.11;100473.48;124570;1102;104105;-77
2023/01/28 08:48:04;;;;;;;40.57;18.67;;;;;;;0.92;84.72;100473.05;124638;1103;102833;-81
2023/01/28 08:50:38;;;;;;;45.25;18.50;;;;;;;0.95;84.46;100475.86;124777;1102;103245;-76
2023/01/28 08:53:14;;;;;;;43.40;19.53;;;;;;;0.98;84.88;100470.92;124758;1102;104265;-78
2023/01/28 08:55:49;;;;;;;42.23;19.10;;;;;;;0.95;83.39;100486.20;124818;1102;104229;-77
2023/01/28 08:58:21;;;;;;;47.30;21.90;;;;;;;1.03;84.92;100466.98;124762;1105;107000;-77
2023/01/28 09:00:55;;;;;;;42.20;19.03;;;;;;;1.01;83.61;100465.06;124647;1102;104188;-76
2023/01/28 09:03:38;;;;;;;46.13;20.68;;;;;;;1.04;84.14;100458.45;124769;1102;105304;-78
2023/01/28 09:06:10;;;;;;;45.97;18.97;;;;;;;1.11;84.20;100453.69;124621;1102;103355;-76
2023/01/28 09:08:42;;;;;;;45.97;20.07;;;;;;;1.12;83.35;100447.75;124737;1105;104220;-77
2023/01/28 09:11:18;;;;;;;39.75;17.35;;;;;;;1.14;82.35;100440.99;124726;1103;101961;-76
2023/01/28 09:13:49;;;;;;;43.47;20.00;;;;;;;1.12;82.59;100443.47;124697;1102;102185;-79
2023/01/28 09:16:26;;;;;;;41.80;17.37;;;;;;;1.12;82.82;100451.22;124756;1102;103024;-79
2023/01/28 09:18:58;;;;;;;42.60;19.83;;;;;;;1.16;82.55;100453.25;124796;1102;103252;-77
2023/01/28 09:21:30;;;;;;;46.77;20.70;;;;;;;1.18;82.68;100432.69;125003;1103;103013;-78
2023/01/28 09:24:04;;;;;;;42.83;18.67;;;;;;;1.23;82.43;100429.66;124925;1102;102565;-78
2023/01/28 09:26:36;;;;;;;41.40;19.07;;;;;;;1.24;82.01;100440.88;124694;1102;104220;-78
2023/01/28 09:29:09;;;;;;;44.03;18.20;;;;;;;1.16;82.15;100445.50;124870;1105;103362;-77
2023/01/28 09:31:41;;;;;;;44.53;20.47;;;;;;;1.11;82.72;100430.44;124819;1102;103552;-80
2023/01/28 09:34:13;;;;;;;41.80;18.97;;;;;;;1.08;82.27;100437.19;124704;1102;104220;-81
2023/01/28 09:36:45;;;;;;;40.83;16.47;;;;;;;1.04;81.86;100418.77;124762;1102;103385;-80
2023/01/28 09:39:17;;;;;;;38.53;15.70;;;;;;;0.97;81.62;100425.19;124944;1102;104210;-79
2023/01/28 09:41:56;;;;;;;39.23;18.20;;;;;;;0.92;81.31;100415.30;124887;1102;102805;-79
2023/01/28 09:44:44;;;;;;;43.03;19.57;;;;;;;0.93;81.93;100417.98;124717;1102;104159;-78
2023/01/28 09:47:24;;;;;;;42.10;17.93;;;;;;;0.93;82.27;100417.98;124680;1102;103049;-78
2023/01/28 09:50:02;;;;;;;46.03;20.90;;;;;;;0.97;82.05;100412.27;124606;1105;102411;-76
2023/01/28 09:52:37;;;;;;;41.20;19.07;;;;;;;0.93;81.72;100411.93;124914;1102;102507;-78
2023/01/28 09:55:19;;;;;;;43.47;18.70;;;;;;;0.85;81.69;100406.20;124729;1102;101855;-79
2023/01/28 09:57:54;;;;;;;42.37;19.53;;;;;;;0.82;81.39;100408.56;124800;1102;104184;-78
2023/01/28 10:00:31;;;;;;;42.13;20.20;;;;;;;0.87;81.95;100405.55;124810;1102;104421;-78
2023/01/28 10:03:43;;;;;;;45.90;20.40;;;;;;;0.85;81.56;100407.09;125955;1102;101858;-80
2023/01/28 10:06:24;;;;;;;41.43;18.20;;;;;;;0.81;80.93;100407.67;126102;1101;101909;-79
2023/01/28 10:09:15;;;;;;;46.40;22.70;;;;;;;0.89;81.35;100403.07;126122;1101;102553;-81
2023/01/28 10:12:13;;;;;;;44.13;19.37;;;;;;;0.93;80.31;100410.23;126110;1105;101817;-77
2023/01/28 10:14:57;;;;;;;44.27;20.20;;;;;;;1.03;80.73;100404.95;125806;1105;103632;-76
2023/01/28 10:17:34;;;;;;;46.75;20.50;;;;;;;1.02;80.13;100408.31;125108;1102;102233;-79
2023/01/28 10:20:24;;;;;;;49.63;22.40;;;;;;;1.04;79.99;100404.19;124772;1102;104156;-76
2023/01/28 10:23:03;;;;;;;47.37;21.53;;;;;;;1.04;79.34;100409.35;125395;1102;102181;-77
2023/01/28 10:25:43;;;;;;;51.93;23.13;;;;;;;1.02;79.76;100408.31;124885;1102;104274;-77
2023/01/28 10:28:24;;;;;;;46.67;20.17;;;;;;;0.96;80.01;100402.70;125003;1103;102764;-77
2023/01/28 10:30:57;;;;;;;45.47;17.47;;;;;;;0.89;78.61;100400.48;125166;1102;102874;-76
2023/01/28 10:33:36;;;;;;;41.13;17.70;;;;;;;0.79;79.43;100404.06;125170;1102;103118;-82
2023/01/28 10:36:15;;;;;;;47.13;20.70;;;;;;;0.81;80.30;100402.52;124787;1102;102860;-78
2023/01/28 10:38:49;;;;;;;47.43;21.23;;;;;;;0.85;80.29;100396.76;124878;1102;102202;-75
2023/01/28 10:41:26;;;;;;;49.83;22.40;;;;;;;0.90;80.09;100399.68;125412;1102;102946;-76
2023/01/28 10:43:58;;;;;;;48.27;22.70;;;;;;;0.86;79.99;100393.41;125200;1102;104229;-78
2023/01/28 10:46:33;;;;;;;50.27;20.30;;;;;;;0.83;79.04;100389.70;125144;1102;102231;-82
2023/01/28 10:49:15;;;;;;;47.20;21.97;;;;;;;0.77;79.09;100392.73;125138;1102;104036;-80
2023/01/28 10:51:49;;;;;;;48.73;21.57;;;;;;;0.70;79.62;100408.55;125196;1102;102102;-79
2023/01/28 10:54:23;;;;;;;47.03;21.30;;;;;;;0.65;80.18;100379.81;125346;1102;102509;-76
2023/01/28 10:56:55;;;;;;;;;;;;;;;0.66;80.25;100388.48;125438;1102;104079;-81
2023/01/28 10:59:30;;;;;;;49.93;23.77;;;;;;;0.65;80.38;100390.14;125161;1102;104104;-80
2023/01/28 11:02:06;;;;;;;48.50;21.63;;;;;;;0.64;80.25;100388.36;125248;1102;102577;-76
2023/01/28 11:04:38;;;;;;;48.40;21.73;;;;;;;0.60;79.86;100395.77;125285;1102;104166;-76
2023/01/28 11:07:19;;;;;;;44.57;19.67;;;;;;;0.51;79.63;100383.98;125114;1102;102213;-76
2023/01/28 11:09:51;;;;;;;53.13;23.37;;;;;;;0.42;80.45;100379.80;125065;1102;103078;-77
2023/01/28 11:12:26;;;;;;;46.77;23.03;;;;;;;0.42;80.57;100384.97;125113;1101;102557;-75
2023/01/28 11:14:59;;;;;;;48.63;24.03;;;;;;;0.48;80.61;100375.09;125117;1102;102871;-77
2023/01/28 11:17:34;;;;;;;49.48;21.52;;;;;;;0.46;80.10;100374.98;125295;1102;104259;-78
2023/01/28 11:20:20;;;;;;;46.47;21.37;;;;;;;0.44;80.36;100362.77;125215;1101;103030;-79
2023/01/28 11:22:55;;;;;;;51.67;23.07;;;;;;;0.42;80.56;100374.64;125189;1103;102559;-80
2023/01/28 11:25:31;;;;;;;50.43;22.83;;;;;;;0.39;79.99;100374.41;125302;1102;102328;-79
2023/01/28 11:28:06;;;;;;;51.23;22.10;;;;;;;0.34;79.78;100372.41;125185;1101;102091;-80
2023/01/28 11:30:40;;;;;;;53.73;25.23;;;;;;;0.34;80.30;100362.09;125098;1102;102016;-78
2023/01/28 11:33:16;;;;;;;;;;;;;;;0.34;79.99;100367.25;125205;1102;103488;-76
2023/01/28 11:36:05;;;;;;;51.60;22.73;;;;;;;0.38;80.57;100362.31;125513;1102;103120;-79
2023/01/28 11:38:36;;;;;;;54.37;24.57;;;;;;;0.37;80.64;100360.51;125314;1102;104259;-77
2023/01/28 11:41:16;;;;;;;54.83;24.57;;;;;;;0.35;80.49;100356.12;125342;1102;104239;-76
2023/01/28 11:43:51;;;;;;;51.73;24.97;;;;;;;0.39;80.74;100346.94;125345;1102;102036;-75
2023/01/28 11:46:43;;;;;;;53.60;24.53;;;;;;;0.40;80.35;100335.81;116629;1102;10001228;-78
2023/01/28 11:49:26;;;;;;;45.87;19.03;;;;;;;0.37;81.07;100332.11;125066;1102;102451;-78
2023/01/28 11:52:10;;;;;;;49.13;21.43;;;;;;;0.42;80.67;100349.75;125111;1102;110660;-78
2023/01/28 11:54:56;;;;;;;52.93;23.12;;;;;;;0.37;80.54;100345.02;125087;1102;103494;-81
2023/01/28 11:57:36;;;;;;;49.17;23.23;;;;;;;0.41;80.85;100344.47;125197;1102;102919;-76
2023/01/28 12:00:35;;;;;;;50.37;24.60;;;;;;;0.45;80.98;100343.89;125186;1102;103741;-75
2023/01/28 12:03:39;;;;;;;56.80;26.30;;;;;;;0.50;81.33;100345.15;125171;1101;102756;-78
2023/01/28 12:06:50;;;;;;;47.95;22.62;;;;;;;0.54;80.32;100347.14;125282;1102;102575;-84
2023/01/28 12:09:28;;;;;;;54.20;24.20;;;;;;;0.54;80.37;100349.73;124796;1102;102882;-77
2023/01/28 12:12:14;;;;;;;52.65;23.20;;;;;;;0.56;80.48;100361.05;126048;1102;104158;-77
2023/01/28 12:15:06;;;;;;;55.97;25.43;;;;;;;0.56;80.36;100353.31;126274;1100;102799;-77
2023/01/28 12:17:50;;;;;;;48.43;21.23;;;;;;;0.55;80.12;100354.12;126193;1100;102278;-75